Aviation Digital Data Service (ADDS)

Output produced by METARs form (1343 UTC 26 May 2018)
found at http://www.aviationweather.gov/adds/metars/
 
TAF EGYP 261335Z 2615/2709 31025G35KT 9999 FEW040 
     TEMPO 2615/2621 31030G45KT 
     BECMG 2700/2703 28025G35KT 
     TEMPO 2703/2709 7000 RA SCT012 
     PROB30 
     TEMPO 2703/2709 27030G45KT